37分钟前
罗盘
风向 的 风向 220° Cheadle Airport 7/25
风: 5 千吨, 2 beaufort
0 500 1.500 3.000 5.000 8.000 10.000
垂直能见度
METAR CYYC 042000Z 22005KT 2 1/2SM -SN VV020 M05/M09 A2970 RMK SN8 SLP122

METAR定义 | 嵌入

24小时趋势

航班类别VFRLIFR
温度-2 °C-8 °C
风速9 千吨0 千吨
能见度64 公里0 米

更多历史数据

下载我们的安卓应用程序

从你的主屏幕上轻松地访问你的航空天气。
只需一次付费,您就可以获得无广告的体验。

您会帮助我们保持Metar-Taf.com正常运行吗?
您的贡献有助于网站的进一步开发并支付费用。

没有更多广告

您是捐款5美元还是更多?然后,我们将永远不会再向您展示广告,这是我们永恒的感谢!
捐赠前先登录

METAR Cheadle Airport

Cheadle Airport是Cheadle,加拿大中的小机场。 机场有{a,plural,=1{一条跑道} other{#跑道}}: 7/25

Cheadle Airport最近未发布观察结果。相反,我们向您显示28 km的报告Calgary International Airport。 该报告是针对2021年12月4日 13:00, 当地时间进行的。

机场观察

风来自南西 (220°)方向,速度为5 千吨。

可见度为4,0 公里。

垂直能见度为2.000 ft 破损或更高的上限为2.000 ft。

当前天气为光 雪。 温度为-5 °C,阵风为-11 °C。 露点为-9 °C,相对湿度为74%。 海平面上的气压为1006 压力 (QNH)。

评论

  • 海平面压力为1012,2 压力 (SLP122)
  • SN8

白天

今天,太阳从08:20升起,在16:29降落。 这适用于Cheadle Airport,世界夏令时可能有所不同。 当地时间与世界标准时间之间的时差为-7 小时。 当前,没有夏令时有效。

公司介绍

我们没有关于这个机场的公司信息。

体会

到Vliegles.nl去找飞行课程,跳伞和其他飞行体验。 浏览页面,了解Cheadle Airport附近所有可用的活动。 你也可以使用搜索功能来寻找你所在地附近的特定飞行课程、跳伞或其他飞行体验。

您是否要在网站上Cheadle Airport飞行的天气? 阅读更多   自由!